createdAt,value
2017-09-28T00:00:57.815Z,14.40
2017-09-28T00:03:24.471Z,14.40
2017-09-28T00:05:51.371Z,14.40
2017-09-28T00:08:17.667Z,14.40
2017-09-28T00:10:43.942Z,14.40
2017-09-28T00:13:10.210Z,14.10
2017-09-28T00:15:36.543Z,14.10
2017-09-28T00:18:02.824Z,14.10
2017-09-28T00:20:29.104Z,14.10
2017-09-28T00:22:55.375Z,14.00
2017-09-28T00:25:21.654Z,14.10
2017-09-28T00:27:47.918Z,14.10
2017-09-28T00:30:14.231Z,14.10
2017-09-28T00:32:40.516Z,14.20
2017-09-28T00:35:06.825Z,14.10
2017-09-28T00:37:33.142Z,14.10
2017-09-28T00:39:59.428Z,14.00
2017-09-28T00:42:25.711Z,13.90
2017-09-28T00:44:51.979Z,13.90
2017-09-28T00:47:18.667Z,14.00
2017-09-28T00:49:44.967Z,14.00
2017-09-28T00:52:11.288Z,14.00
2017-09-28T00:54:37.543Z,14.00
2017-09-28T00:57:03.883Z,14.00
2017-09-28T00:59:30.207Z,14.00
2017-09-28T01:01:56.494Z,14.00
2017-09-28T01:04:22.783Z,13.80
2017-09-28T01:06:49.050Z,13.80
2017-09-28T01:09:15.708Z,13.80
2017-09-28T01:11:42.015Z,13.80
2017-09-28T01:14:08.675Z,13.70
2017-09-28T01:16:34.955Z,13.70
2017-09-28T01:19:01.259Z,13.70
2017-09-28T01:21:27.559Z,13.70
2017-09-28T01:23:53.899Z,13.70
2017-09-28T01:26:20.188Z,13.70
2017-09-28T01:28:46.511Z,13.70
2017-09-28T01:31:12.825Z,13.70
2017-09-28T01:33:39.127Z,13.70
2017-09-28T01:36:05.420Z,13.70
2017-09-28T01:38:32.087Z,13.70
2017-09-28T01:40:58.394Z,13.70
2017-09-28T01:43:24.693Z,13.60
2017-09-28T01:45:51.003Z,13.60
2017-09-28T01:48:17.298Z,13.60
2017-09-28T01:50:43.839Z,13.60
2017-09-28T01:53:10.127Z,13.50
2017-09-28T01:55:36.439Z,13.30
2017-09-28T01:58:02.769Z,13.40
2017-09-28T02:00:29.071Z,13.40
2017-09-28T02:02:55.373Z,13.40
2017-09-28T02:05:22.011Z,13.30
2017-09-28T02:07:48.673Z,13.30
2017-09-28T02:10:14.953Z,13.30
2017-09-28T02:12:41.239Z,13.30
2017-09-28T02:15:07.539Z,13.20
2017-09-28T02:17:33.821Z,13.20
2017-09-28T02:20:00.109Z,13.10
2017-09-28T02:22:26.389Z,13.10
2017-09-28T02:24:52.755Z,13.20
2017-09-28T02:27:19.044Z,13.20
2017-09-28T02:29:45.343Z,13.10
2017-09-28T02:32:11.636Z,13.10
2017-09-28T02:34:37.951Z,13.10
2017-09-28T02:37:04.611Z,13.00
2017-09-28T02:39:30.895Z,13.00
2017-09-28T02:41:57.180Z,13.00
2017-09-28T02:44:23.437Z,12.90
2017-09-28T02:46:49.739Z,12.70
2017-09-28T02:49:15.983Z,12.80
2017-09-28T02:51:42.291Z,12.90
2017-09-28T02:54:08.927Z,13.00
2017-09-28T02:56:35.603Z,13.00
2017-09-28T02:59:01.859Z,13.10
2017-09-28T03:01:28.141Z,13.10
2017-09-28T03:03:54.438Z,13.10
2017-09-28T03:06:20.714Z,13.00
2017-09-28T03:08:46.990Z,13.00
2017-09-28T03:11:13.243Z,13.00
2017-09-28T03:13:39.892Z,13.00
2017-09-28T03:16:06.144Z,13.00
2017-09-28T03:18:32.431Z,12.90
2017-09-28T03:20:59.059Z,12.90
2017-09-28T03:23:25.718Z,12.90
2017-09-28T03:25:52.343Z,12.80
2017-09-28T03:28:18.987Z,12.90
2017-09-28T03:30:45.680Z,12.90
2017-09-28T03:33:12.011Z,12.90
2017-09-28T03:35:38.299Z,12.90
2017-09-28T03:38:04.571Z,12.90
2017-09-28T03:40:30.852Z,12.90
2017-09-28T03:42:57.108Z,12.90
2017-09-28T03:45:23.406Z,12.70
2017-09-28T03:47:49.712Z,12.80
2017-09-28T03:50:16.004Z,12.80
2017-09-28T03:52:42.296Z,12.80
2017-09-28T03:55:08.935Z,12.80
2017-09-28T03:57:35.547Z,12.80
2017-09-28T04:00:01.852Z,12.80
2017-09-28T04:02:28.141Z,12.70
2017-09-28T04:04:54.386Z,12.70
2017-09-28T04:07:20.684Z,12.60
2017-09-28T04:09:47.316Z,12.70
2017-09-28T04:12:13.603Z,12.70
2017-09-28T04:14:39.899Z,12.80
2017-09-28T04:17:06.156Z,12.80
2017-09-28T04:19:32.435Z,12.90
2017-09-28T04:21:59.090Z,12.90
2017-09-28T04:24:25.390Z,12.90
2017-09-28T04:26:58.482Z,12.90
2017-09-28T04:29:25.167Z,13.00
2017-09-28T04:31:51.434Z,13.00
2017-09-28T04:34:17.757Z,13.00
2017-09-28T04:36:44.066Z,12.90
2017-09-28T04:39:10.346Z,12.90
2017-09-28T04:41:36.633Z,12.90
2017-09-28T04:44:02.901Z,12.80
2017-09-28T04:46:29.556Z,12.90
2017-09-28T04:48:55.797Z,12.90
2017-09-28T04:51:22.064Z,12.90
2017-09-28T04:53:48.343Z,12.80
2017-09-28T04:56:14.621Z,12.80
2017-09-28T04:58:40.897Z,12.90
2017-09-28T05:01:07.601Z,12.70
2017-09-28T05:03:33.864Z,12.70
2017-09-28T05:06:00.475Z,12.70
2017-09-28T05:08:26.742Z,12.70
2017-09-28T05:10:53.015Z,12.60
2017-09-28T05:13:19.310Z,12.70
2017-09-28T05:15:45.583Z,12.50
2017-09-28T05:18:11.859Z,12.50
2017-09-28T05:20:38.116Z,12.60
2017-09-28T05:23:04.396Z,12.70
2017-09-28T05:25:31.019Z,12.80
2017-09-28T05:27:57.301Z,12.80
2017-09-28T05:30:23.601Z,12.80
2017-09-28T05:32:50.239Z,12.80
2017-09-28T05:35:16.533Z,12.80
2017-09-28T05:37:42.793Z,12.80
2017-09-28T05:40:09.500Z,12.80
2017-09-28T05:42:35.784Z,12.80
2017-09-28T05:45:02.072Z,12.90
2017-09-28T05:47:28.330Z,13.00
2017-09-28T05:50:01.476Z,13.10
2017-09-28T05:52:34.532Z,13.00
2017-09-28T05:55:00.788Z,13.20
2017-09-28T05:57:27.111Z,13.30
2017-09-28T05:59:53.403Z,13.40
2017-09-28T06:02:19.717Z,13.50
2017-09-28T06:04:46.366Z,13.60
2017-09-28T06:07:12.639Z,13.60
2017-09-28T06:09:38.919Z,13.70
2017-09-28T06:12:05.204Z,13.80
2017-09-28T06:14:31.467Z,13.90
2017-09-28T06:16:57.726Z,13.90
2017-09-28T06:19:24.013Z,14.00
2017-09-28T06:21:50.266Z,13.90
2017-09-28T06:24:16.549Z,14.00
2017-09-28T06:26:42.862Z,14.20
2017-09-28T06:29:09.147Z,14.40
2017-09-28T06:31:35.794Z,14.60
2017-09-28T06:34:02.070Z,14.60
2017-09-28T06:36:28.356Z,14.70
2017-09-28T06:38:54.613Z,14.70
2017-09-28T06:41:20.883Z,14.60
2017-09-28T06:43:47.154Z,14.60
2017-09-28T06:46:13.532Z,14.60
2017-09-28T06:48:39.853Z,14.80
2017-09-28T06:51:06.125Z,14.80
2017-09-28T06:53:32.430Z,14.90
2017-09-28T06:55:58.716Z,14.90
2017-09-28T06:58:25.003Z,15.00
2017-09-28T07:00:51.252Z,15.10
2017-09-28T07:03:17.559Z,15.00
2017-09-28T07:05:44.203Z,14.70
2017-09-28T07:08:10.880Z,14.90
2017-09-28T07:10:37.231Z,14.90
2017-09-28T07:13:03.559Z,14.80
2017-09-28T07:15:29.887Z,14.60
2017-09-28T07:17:56.202Z,14.70
2017-09-28T07:20:22.539Z,14.90
2017-09-28T07:22:48.820Z,14.90
2017-09-28T07:25:15.485Z,15.10
2017-09-28T07:27:41.760Z,15.10
2017-09-28T07:30:08.084Z,15.00
2017-09-28T07:32:34.383Z,15.10
2017-09-28T07:35:04.231Z,15.10
2017-09-28T07:37:30.560Z,15.20
2017-09-28T07:39:58.543Z,15.40
2017-09-28T07:42:24.827Z,15.50
2017-09-28T07:44:51.092Z,15.70
2017-09-28T07:47:17.395Z,15.80
2017-09-28T07:49:43.665Z,15.90
2017-09-28T07:52:10.333Z,15.80
2017-09-28T07:54:36.606Z,15.80
2017-09-28T07:57:02.927Z,16.00
2017-09-28T07:59:29.211Z,16.20
2017-09-28T08:01:55.476Z,16.60
2017-09-28T08:04:21.776Z,16.90
2017-09-28T08:06:48.018Z,17.00
2017-09-28T08:09:14.291Z,17.30
2017-09-28T08:11:40.555Z,17.50
2017-09-28T08:14:21.960Z,17.60
2017-09-28T08:16:48.215Z,17.70
2017-09-28T08:19:14.526Z,17.60
2017-09-28T08:21:40.821Z,17.70
2017-09-28T08:24:07.445Z,17.90
2017-09-28T08:26:34.121Z,18.00
2017-09-28T08:29:00.386Z,18.00
2017-09-28T08:31:26.680Z,17.90
2017-09-28T08:33:53.003Z,17.80
2017-09-28T08:36:19.345Z,18.10
2017-09-28T08:38:45.633Z,18.00
2017-09-28T08:41:12.291Z,18.30
2017-09-28T08:43:38.914Z,18.50
2017-09-28T08:46:05.611Z,18.60
2017-09-28T08:48:31.881Z,18.60
2017-09-28T08:51:36.174Z,18.70
2017-09-28T08:54:03.239Z,18.60
2017-09-28T08:56:29.471Z,18.80
2017-09-28T08:58:55.746Z,19.00
2017-09-28T09:01:22.015Z,19.10
2017-09-28T09:03:48.326Z,19.30
2017-09-28T09:06:14.598Z,19.20
2017-09-28T09:08:41.262Z,19.50
2017-09-28T09:11:07.519Z,19.50
2017-09-28T09:13:33.776Z,19.80
2017-09-28T09:16:00.032Z,19.90
2017-09-28T09:18:26.707Z,20.10
2017-09-28T09:20:52.964Z,20.10
2017-09-28T09:23:19.257Z,19.90
2017-09-28T09:25:45.543Z,19.80
2017-09-28T09:28:12.164Z,19.90
2017-09-28T09:30:38.435Z,19.90
2017-09-28T09:33:04.700Z,19.70
2017-09-28T09:35:30.996Z,19.70
2017-09-28T09:37:57.279Z,19.70
2017-09-28T09:40:23.609Z,20.10
2017-09-28T09:42:49.882Z,20.20
2017-09-28T09:45:16.175Z,20.30
2017-09-28T09:47:42.504Z,20.60
2017-09-28T09:50:08.794Z,20.60
2017-09-28T09:52:35.070Z,20.80
2017-09-28T09:55:01.755Z,20.70
2017-09-28T09:57:28.031Z,20.70
2017-09-28T09:59:54.311Z,20.90
2017-09-28T10:02:20.603Z,20.70
2017-09-28T10:04:48.206Z,21.00
2017-09-28T10:07:24.627Z,21.00
2017-09-28T10:09:56.908Z,21.00
2017-09-28T10:12:33.085Z,22.00
2017-09-28T10:15:07.372Z,22.10
2017-09-28T10:17:35.024Z,22.80
2017-09-28T10:20:02.324Z,23.80
2017-09-28T10:22:28.603Z,25.00
2017-09-28T10:24:54.893Z,26.30
2017-09-28T10:27:21.172Z,27.40
2017-09-28T10:29:47.481Z,27.40
2017-09-28T10:32:13.781Z,28.30
2017-09-28T10:34:40.036Z,28.30
2017-09-28T10:37:06.313Z,28.40
2017-09-28T10:39:32.965Z,29.80
2017-09-28T10:41:59.224Z,29.80
2017-09-28T10:44:25.488Z,29.90
2017-09-28T10:46:51.764Z,29.50
2017-09-28T10:49:18.090Z,28.90
2017-09-28T10:51:45.395Z,28.80
2017-09-28T10:54:11.700Z,29.00
2017-09-28T10:56:37.983Z,29.10
2017-09-28T10:59:06.100Z,28.40
2017-09-28T11:01:32.387Z,27.80
2017-09-28T11:03:58.652Z,27.70
2017-09-28T11:06:24.951Z,27.90
2017-09-28T11:08:51.280Z,27.90
2017-09-28T11:11:17.545Z,27.70
2017-09-28T11:13:43.805Z,26.90
2017-09-28T11:16:10.086Z,26.30
2017-09-28T11:18:36.342Z,25.70
2017-09-28T11:21:02.652Z,25.70
2017-09-28T11:23:28.920Z,26.50
2017-09-28T11:25:55.203Z,27.90
2017-09-28T11:28:21.460Z,29.20
2017-09-28T11:30:47.748Z,30.00
2017-09-28T11:33:14.107Z,29.60
2017-09-28T11:35:40.351Z,29.10
2017-09-28T11:38:06.634Z,28.60
2017-09-28T11:40:32.894Z,27.90
2017-09-28T11:42:59.191Z,27.50
2017-09-28T11:45:25.479Z,27.20
2017-09-28T11:47:51.771Z,26.90
2017-09-28T11:50:18.074Z,26.80
2017-09-28T11:52:44.324Z,26.70
2017-09-28T11:55:10.623Z,26.80
2017-09-28T11:57:36.908Z,27.10
2017-09-28T12:00:03.744Z,27.80
2017-09-28T12:02:29.997Z,29.20
2017-09-28T12:04:56.275Z,30.30
2017-09-28T12:07:22.527Z,31.80
2017-09-28T12:09:48.817Z,32.50
2017-09-28T12:12:15.087Z,32.80
2017-09-28T12:14:41.322Z,33.40
2017-09-28T12:17:07.577Z,32.80
2017-09-28T12:19:35.199Z,34.80
2017-09-28T12:22:01.494Z,34.80
2017-09-28T12:24:27.784Z,36.40
2017-09-28T12:26:54.091Z,36.20
2017-09-28T12:29:20.401Z,35.10
2017-09-28T12:31:46.688Z,34.30
2017-09-28T12:34:12.984Z,32.90
2017-09-28T12:36:39.277Z,32.00
2017-09-28T12:39:05.571Z,31.10
2017-09-28T12:41:31.875Z,30.40
2017-09-28T12:43:58.167Z,29.60
2017-09-28T12:46:24.477Z,29.20
2017-09-28T12:48:51.234Z,29.50
2017-09-28T12:51:17.542Z,29.50
2017-09-28T12:53:43.837Z,30.40
2017-09-28T12:56:10.183Z,31.60
2017-09-28T12:58:36.496Z,32.70
2017-09-28T13:01:02.812Z,33.90
2017-09-28T13:03:29.160Z,34.20
2017-09-28T13:05:56.968Z,34.10
2017-09-28T13:08:23.220Z,33.70
2017-09-28T13:10:49.516Z,33.20
2017-09-28T13:13:16.159Z,34.80
2017-09-28T13:15:42.792Z,35.20
2017-09-28T13:18:09.480Z,35.20
2017-09-28T13:20:35.746Z,35.20
2017-09-28T13:23:02.020Z,34.70
2017-09-28T13:25:28.310Z,34.00
2017-09-28T13:27:54.987Z,32.40
2017-09-28T13:30:21.304Z,32.40
2017-09-28T13:32:47.581Z,32.20
2017-09-28T13:35:13.871Z,31.90
2017-09-28T13:37:40.201Z,32.00
2017-09-28T13:40:06.527Z,32.70
2017-09-28T13:42:32.746Z,33.00
2017-09-28T13:44:59.489Z,35.10
2017-09-28T13:47:25.808Z,35.10
2017-09-28T13:49:52.510Z,38.40
2017-09-28T13:52:18.775Z,38.40
2017-09-28T13:54:45.461Z,38.50
2017-09-28T13:57:11.727Z,38.50
2017-09-28T13:59:38.043Z,38.70
2017-09-28T14:02:04.390Z,39.10
2017-09-28T14:04:30.959Z,39.70
2017-09-28T14:06:57.276Z,40.70
2017-09-28T14:09:23.950Z,39.50
2017-09-28T14:11:50.792Z,39.50
2017-09-28T14:14:17.105Z,39.70
2017-09-28T14:16:43.420Z,40.30
2017-09-28T14:19:09.741Z,40.60
2017-09-28T14:21:36.063Z,39.50
2017-09-28T14:24:02.742Z,39.10
2017-09-28T14:26:29.109Z,39.10
2017-09-28T14:28:55.455Z,39.40
2017-09-28T14:31:21.872Z,39.50
2017-09-28T14:33:48.208Z,39.30
2017-09-28T14:36:14.502Z,39.40
2017-09-28T14:38:40.894Z,39.20
2017-09-28T14:41:07.577Z,36.40
2017-09-28T14:43:33.908Z,36.40
2017-09-28T14:46:00.189Z,34.20
2017-09-28T14:48:26.880Z,31.60
2017-09-28T14:50:53.210Z,31.60
2017-09-28T14:53:19.495Z,29.90
2017-09-28T14:55:46.428Z,28.40
2017-09-28T14:58:13.073Z,27.60
2017-09-28T15:00:39.759Z,27.10
2017-09-28T15:03:06.056Z,27.20
2017-09-28T15:05:32.336Z,26.90
2017-09-28T15:07:58.623Z,26.60
2017-09-28T15:10:24.956Z,26.60
2017-09-28T15:12:51.245Z,26.40
2017-09-28T15:15:17.586Z,26.00
2017-09-28T15:17:44.268Z,26.00
2017-09-28T15:20:10.561Z,26.00
2017-09-28T15:22:36.862Z,26.00
2017-09-28T15:25:03.677Z,25.90
2017-09-28T15:27:29.985Z,25.90
2017-09-28T15:29:56.295Z,25.90
2017-09-28T15:32:22.953Z,26.00
2017-09-28T15:34:49.276Z,26.00
2017-09-28T15:37:15.609Z,25.90
2017-09-28T15:39:41.951Z,25.70
2017-09-28T15:42:08.238Z,25.30
2017-09-28T15:44:34.555Z,25.10
2017-09-28T15:47:00.856Z,24.90
2017-09-28T15:49:27.177Z,24.60
2017-09-28T15:51:53.471Z,24.70
2017-09-28T15:54:20.464Z,24.70
2017-09-28T15:56:46.743Z,24.70
2017-09-28T15:59:13.413Z,24.70
2017-09-28T16:01:39.813Z,24.70
2017-09-28T16:04:06.138Z,24.70
2017-09-28T16:06:33.822Z,24.60
2017-09-28T16:09:00.116Z,24.60
2017-09-28T16:11:26.407Z,24.60
2017-09-28T16:13:52.687Z,24.50
2017-09-28T16:16:19.376Z,24.40
2017-09-28T16:18:45.644Z,24.40
2017-09-28T16:21:11.990Z,24.40
2017-09-28T16:23:38.284Z,24.20
2017-09-28T16:26:04.546Z,24.00
2017-09-28T16:28:31.230Z,23.50
2017-09-28T16:30:57.504Z,23.50
2017-09-28T16:33:23.809Z,23.50
2017-09-28T16:35:50.150Z,23.30
2017-09-28T16:38:17.252Z,23.20
2017-09-28T16:40:43.539Z,23.10
2017-09-28T16:43:09.827Z,22.90
2017-09-28T16:45:36.155Z,22.80
2017-09-28T16:48:02.424Z,22.60
2017-09-28T16:50:28.721Z,22.50
2017-09-28T16:52:54.990Z,22.30
2017-09-28T16:55:21.312Z,22.10
2017-09-28T16:57:47.623Z,22.00
2017-09-28T17:00:13.912Z,21.80
2017-09-28T17:02:40.183Z,21.60
2017-09-28T17:05:06.511Z,21.40
2017-09-28T17:07:32.821Z,21.30
2017-09-28T17:09:59.150Z,21.10
2017-09-28T17:12:25.467Z,21.00
2017-09-28T17:14:51.769Z,20.80
2017-09-28T17:17:19.110Z,20.50
2017-09-28T17:19:45.399Z,20.50
2017-09-28T17:22:11.742Z,20.40
2017-09-28T17:24:38.206Z,20.30
2017-09-28T17:27:04.619Z,20.00
2017-09-28T17:29:31.015Z,19.90
2017-09-28T17:31:57.533Z,19.70
2017-09-28T17:34:23.983Z,19.70
2017-09-28T17:36:50.941Z,19.60
2017-09-28T17:39:17.326Z,19.50
2017-09-28T17:41:43.861Z,19.30
2017-09-28T17:44:10.246Z,19.30
2017-09-28T17:46:37.105Z,19.20
2017-09-28T17:49:03.644Z,19.10
2017-09-28T17:51:29.968Z,19.00
2017-09-28T17:54:03.071Z,18.80
2017-09-28T17:56:29.760Z,18.80
2017-09-28T17:58:56.051Z,18.70
2017-09-28T18:01:22.736Z,18.40
2017-09-28T18:03:49.056Z,18.40
2017-09-28T18:06:16.608Z,18.40
2017-09-28T18:08:43.077Z,18.40
2017-09-28T18:11:09.501Z,18.30
2017-09-28T18:13:35.850Z,18.30
2017-09-28T18:16:02.139Z,18.20
2017-09-28T18:18:29.418Z,18.00
2017-09-28T18:20:55.744Z,17.90
2017-09-28T18:23:22.065Z,18.00
2017-09-28T18:25:48.443Z,18.00
2017-09-28T18:28:14.858Z,18.00
2017-09-28T18:30:41.703Z,17.90
2017-09-28T18:33:08.178Z,17.70
2017-09-28T18:35:34.667Z,17.50
2017-09-28T18:38:01.418Z,17.60
2017-09-28T18:40:28.547Z,17.60
2017-09-28T18:42:54.916Z,17.60
2017-09-28T18:45:21.412Z,17.60
2017-09-28T18:47:47.766Z,17.60
2017-09-28T18:50:14.111Z,17.70
2017-09-28T18:52:40.793Z,17.40
2017-09-28T18:55:07.286Z,17.40
2017-09-28T18:57:33.585Z,17.20
2017-09-28T18:59:59.936Z,17.30
2017-09-28T19:02:27.870Z,17.30
2017-09-28T19:04:55.020Z,17.40
2017-09-28T19:07:22.140Z,17.30
2017-09-28T19:09:48.582Z,17.30
2017-09-28T19:12:14.944Z,17.10
2017-09-28T19:14:41.269Z,16.80
2017-09-28T19:17:07.667Z,16.60
2017-09-28T19:19:34.352Z,16.70
2017-09-28T19:22:01.309Z,16.80
2017-09-28T19:24:27.611Z,16.80
2017-09-28T19:26:54.835Z,16.90
2017-09-28T19:29:21.216Z,16.90
2017-09-28T19:31:47.621Z,16.90
2017-09-28T19:34:14.087Z,16.90
2017-09-28T19:36:40.440Z,16.90
2017-09-28T19:39:07.450Z,16.90
2017-09-28T19:41:33.735Z,16.90
2017-09-28T19:44:00.429Z,16.90
2017-09-28T19:46:26.696Z,16.80
2017-09-28T19:48:53.045Z,16.70
2017-09-28T19:51:19.372Z,16.70
2017-09-28T19:53:46.364Z,16.70
2017-09-28T19:56:12.730Z,16.70
2017-09-28T19:58:39.048Z,16.70
2017-09-28T20:01:06.565Z,16.40
2017-09-28T20:03:32.933Z,16.50
2017-09-28T20:06:00.685Z,16.20
2017-09-28T20:08:26.968Z,16.20
2017-09-28T20:10:53.330Z,16.20
2017-09-28T20:13:19.650Z,16.30
2017-09-28T20:15:46.763Z,16.40
2017-09-28T20:18:13.151Z,16.40
2017-09-28T20:20:39.525Z,16.40
2017-09-28T20:23:05.855Z,16.50
2017-09-28T20:25:32.156Z,16.50
2017-09-28T20:27:59.300Z,16.40
2017-09-28T20:30:25.614Z,16.50
2017-09-28T20:32:51.906Z,16.50
2017-09-28T20:35:18.243Z,16.50
2017-09-28T20:37:44.610Z,16.50
2017-09-28T20:40:10.976Z,16.30
2017-09-28T20:42:38.317Z,16.10
2017-09-28T20:45:04.992Z,16.20
2017-09-28T20:47:31.309Z,16.20
2017-09-28T20:49:57.699Z,16.30
2017-09-28T20:52:24.084Z,16.30
2017-09-28T20:54:51.363Z,16.30
2017-09-28T20:57:17.681Z,16.30
2017-09-28T20:59:44.044Z,16.30
2017-09-28T21:02:10.357Z,16.40
2017-09-28T21:04:36.658Z,16.30
2017-09-28T21:07:02.960Z,16.20
2017-09-28T21:09:29.886Z,15.90
2017-09-28T21:11:56.565Z,16.10
2017-09-28T21:14:22.861Z,16.10
2017-09-28T21:16:49.183Z,16.10
2017-09-28T21:19:15.483Z,16.00
2017-09-28T21:21:41.738Z,16.00
2017-09-28T21:26:41.116Z,16.00
2017-09-28T21:29:07.422Z,15.90
2017-09-28T21:31:33.797Z,15.90
2017-09-28T21:34:00.794Z,15.80
2017-09-28T21:36:27.103Z,15.80
2017-09-28T21:38:53.428Z,15.80
2017-09-28T21:41:20.114Z,15.70
2017-09-28T21:43:46.410Z,15.70
2017-09-28T21:46:12.747Z,15.70
2017-09-28T21:48:39.401Z,15.40
2017-09-28T21:51:06.472Z,15.40
2017-09-28T21:53:32.774Z,15.20
2017-09-28T21:55:59.531Z,15.10
2017-09-28T21:58:25.846Z,15.00
2017-09-28T22:00:52.136Z,15.10
2017-09-28T22:03:18.427Z,15.20
2017-09-28T22:05:44.696Z,15.20
2017-09-28T22:08:11.567Z,15.20
2017-09-28T22:10:37.861Z,15.10
2017-09-28T22:13:04.150Z,14.90
2017-09-28T22:15:30.433Z,14.90
2017-09-28T22:17:56.748Z,15.00
2017-09-28T22:20:23.051Z,15.10
2017-09-28T22:22:49.319Z,15.20
2017-09-28T22:25:15.611Z,15.20
2017-09-28T22:27:42.914Z,15.20
2017-09-28T22:30:09.269Z,15.10
2017-09-28T22:32:35.583Z,15.00
2017-09-28T22:35:01.930Z,15.10
2017-09-28T22:37:28.224Z,15.20
2017-09-28T22:39:54.518Z,15.30
2017-09-28T22:42:20.833Z,15.40
2017-09-28T22:44:47.106Z,15.40
2017-09-28T22:47:13.416Z,15.50
2017-09-28T22:49:39.704Z,15.60
2017-09-28T22:52:06.035Z,15.60
2017-09-28T22:54:32.283Z,15.60
2017-09-28T22:56:58.609Z,15.50
2017-09-28T22:59:24.903Z,15.40
2017-09-28T23:01:51.576Z,15.60
2017-09-28T23:04:17.898Z,15.60
2017-09-28T23:06:44.231Z,15.50
2017-09-28T23:09:10.530Z,15.50
2017-09-28T23:11:36.787Z,15.40
2017-09-28T23:14:03.124Z,15.50
2017-09-28T23:16:29.408Z,15.60
2017-09-28T23:18:55.704Z,15.50
2017-09-28T23:21:21.981Z,15.60
2017-09-28T23:23:48.659Z,15.60
2017-09-28T23:26:15.566Z,15.60
2017-09-28T23:28:42.233Z,15.40
2017-09-28T23:31:08.573Z,15.40
2017-09-28T23:36:18.467Z,15.60
2017-09-28T23:38:46.497Z,15.60
2017-09-28T23:41:15.248Z,15.60
2017-09-28T23:43:53.341Z,15.60
2017-09-28T23:46:19.632Z,15.70
2017-09-28T23:48:45.921Z,15.80
2017-09-28T23:51:12.552Z,15.80
2017-09-28T23:53:40.234Z,15.80
2017-09-28T23:56:06.515Z,15.80
2017-09-28T23:58:32.827Z,15.90
